createdAt,value
2023-04-15T00:01:10.363Z,61.28
2023-04-15T00:03:37.119Z,61.02
2023-04-15T00:06:03.845Z,60.72
2023-04-15T00:08:30.846Z,60.76
2023-04-15T00:10:59.364Z,60.52
2023-04-15T00:13:25.915Z,60.83
2023-04-15T00:15:52.640Z,61.25
2023-04-15T00:18:20.980Z,60.83
2023-04-15T00:20:48.278Z,62.09
2023-04-15T00:23:14.671Z,61.86
2023-04-15T00:25:41.171Z,61.90
2023-04-15T00:28:10.828Z,63.08
2023-04-15T00:30:37.323Z,62.86
2023-04-15T00:33:03.842Z,62.69
2023-04-15T00:35:32.694Z,63.91
2023-04-15T00:37:59.781Z,63.14
2023-04-15T00:40:28.490Z,64.19
2023-04-15T00:42:55.114Z,64.67
2023-04-15T00:45:21.768Z,63.95
2023-04-15T00:47:48.363Z,63.91
2023-04-15T00:50:14.941Z,63.65
2023-04-15T00:52:41.819Z,64.54
2023-04-15T00:55:09.446Z,64.89
2023-04-15T00:57:36.925Z,64.46
2023-04-15T01:00:05.562Z,64.27
2023-04-15T01:02:32.876Z,64.79
2023-04-15T01:05:01.350Z,65.00
2023-04-15T01:07:27.846Z,65.34
2023-04-15T01:09:54.419Z,66.01
2023-04-15T01:12:21.115Z,66.43
2023-04-15T01:14:47.988Z,66.80
2023-04-15T01:17:14.560Z,67.76
2023-04-15T01:19:41.431Z,67.72
2023-04-15T01:22:08.046Z,67.41
2023-04-15T01:24:35.840Z,67.45
2023-04-15T01:27:02.479Z,66.77
2023-04-15T01:29:29.384Z,66.89
2023-04-15T01:31:56.685Z,67.07
2023-04-15T01:34:25.918Z,66.69
2023-04-15T01:36:53.917Z,66.60
2023-04-15T01:39:21.540Z,67.20
2023-04-15T01:41:48.554Z,66.67
2023-04-15T01:44:16.383Z,67.49
2023-04-15T01:46:42.897Z,66.93
2023-04-15T01:49:09.347Z,67.93
2023-04-15T01:51:35.895Z,67.98
2023-04-15T01:54:02.513Z,68.01
2023-04-15T01:56:29.844Z,68.27
2023-04-15T01:58:56.913Z,68.79
2023-04-15T02:01:23.542Z,68.26
2023-04-15T02:03:52.267Z,68.19
2023-04-15T02:06:21.609Z,68.31
2023-04-15T02:08:48.114Z,68.20
2023-04-15T02:11:14.611Z,69.99
2023-04-15T02:13:41.682Z,69.59
2023-04-15T02:16:19.040Z,69.66
2023-04-15T02:18:47.035Z,70.32
2023-04-15T02:21:15.009Z,69.91
2023-04-15T02:23:41.539Z,69.98
2023-04-15T02:26:08.244Z,69.89
2023-04-15T02:28:34.907Z,70.30
2023-04-15T02:31:05.552Z,70.19
2023-04-15T02:33:32.497Z,71.10
2023-04-15T02:36:00.560Z,71.57
2023-04-15T02:38:27.520Z,72.13
2023-04-15T02:40:53.960Z,71.99
2023-04-15T02:43:20.526Z,71.76
2023-04-15T02:45:47.319Z,72.33
2023-04-15T02:48:14.101Z,72.12
2023-04-15T02:50:41.041Z,72.66
2023-04-15T02:53:09.570Z,72.96
2023-04-15T02:55:36.312Z,73.37
2023-04-15T02:58:02.814Z,73.13
2023-04-15T03:00:29.186Z,73.72
2023-04-15T03:03:02.388Z,73.98
2023-04-15T03:05:29.300Z,74.05
2023-04-15T03:07:56.464Z,74.01
2023-04-15T03:10:23.061Z,74.29
2023-04-15T03:12:49.630Z,74.02
2023-04-15T03:15:18.776Z,74.64
2023-04-15T03:17:49.512Z,74.37
2023-04-15T03:20:16.870Z,75.37
2023-04-15T03:22:43.493Z,74.58
2023-04-15T03:25:10.179Z,74.81
2023-04-15T03:27:38.450Z,74.59
2023-04-15T03:30:06.640Z,75.39
2023-04-15T03:32:35.651Z,75.22
2023-04-15T03:35:02.422Z,75.76
2023-04-15T03:37:28.995Z,75.74
2023-04-15T03:39:55.590Z,75.60
2023-04-15T03:42:22.231Z,76.17
2023-04-15T03:44:48.745Z,75.49
2023-04-15T03:47:15.580Z,76.30
2023-04-15T03:49:42.048Z,76.63
2023-04-15T03:52:08.511Z,76.32
2023-04-15T03:54:34.973Z,76.53
2023-04-15T03:57:01.701Z,77.15
2023-04-15T03:59:28.159Z,76.67
2023-04-15T04:01:54.659Z,76.77
2023-04-15T04:04:21.321Z,77.08
2023-04-15T04:06:47.864Z,77.01
2023-04-15T04:09:14.286Z,77.11
2023-04-15T04:11:40.952Z,77.81
2023-04-15T04:14:07.396Z,77.76
2023-04-15T04:16:33.876Z,77.74
2023-04-15T04:19:00.775Z,77.30
2023-04-15T04:21:28.121Z,77.70
2023-04-15T04:23:54.780Z,77.58
2023-04-15T04:26:22.208Z,77.70
2023-04-15T04:28:48.634Z,77.85
2023-04-15T04:31:15.150Z,78.25
2023-04-15T04:33:41.703Z,77.81
2023-04-15T04:36:08.180Z,77.91
2023-04-15T04:38:34.691Z,78.36
2023-04-15T04:41:01.268Z,78.80
2023-04-15T04:43:27.877Z,78.83
2023-04-15T04:45:54.393Z,78.62
2023-04-15T04:48:21.281Z,78.81
2023-04-15T04:50:48.051Z,79.01
2023-04-15T04:53:15.049Z,79.48
2023-04-15T04:55:41.539Z,79.25
2023-04-15T04:58:08.098Z,79.75
2023-04-15T05:00:34.696Z,79.84
2023-04-15T05:03:01.264Z,79.68
2023-04-15T05:05:27.917Z,80.00
2023-04-15T05:07:54.416Z,80.15
2023-04-15T05:10:21.045Z,80.17
2023-04-15T05:12:47.496Z,80.24
2023-04-15T05:15:13.951Z,80.04
2023-04-15T05:17:40.454Z,80.21
2023-04-15T05:20:07.619Z,80.29
2023-04-15T05:22:34.215Z,80.39
2023-04-15T05:25:01.571Z,80.72
2023-04-15T05:27:28.055Z,80.94
2023-04-15T05:29:54.520Z,81.33
2023-04-15T05:32:21.316Z,81.55
2023-04-15T05:34:47.814Z,81.56
2023-04-15T05:37:14.504Z,81.73
2023-04-15T05:39:40.980Z,81.80
2023-04-15T05:42:08.132Z,81.93
2023-04-15T05:44:34.653Z,82.18
2023-04-15T05:47:01.517Z,82.23
2023-04-15T05:49:28.674Z,81.93
2023-04-15T05:51:55.346Z,82.05
2023-04-15T05:54:24.277Z,81.62
2023-04-15T05:56:51.003Z,81.89
2023-04-15T05:59:17.435Z,82.17
2023-04-15T06:01:45.279Z,82.31
2023-04-15T06:04:14.754Z,82.43
2023-04-15T06:06:41.950Z,82.24
2023-04-15T06:09:08.405Z,82.34
2023-04-15T06:11:34.959Z,81.75
2023-04-15T06:14:04.498Z,82.39
2023-04-15T06:16:31.247Z,82.31
2023-04-15T06:18:57.752Z,82.32
2023-04-15T06:21:24.316Z,82.15
2023-04-15T06:23:50.947Z,81.55
2023-04-15T06:26:17.412Z,81.56
2023-04-15T06:28:43.872Z,80.88
2023-04-15T06:31:10.612Z,79.93
2023-04-15T06:33:37.190Z,78.83
2023-04-15T06:36:03.788Z,78.41
2023-04-15T06:38:30.535Z,78.28
2023-04-15T06:40:57.013Z,75.66
2023-04-15T06:43:25.774Z,74.64
2023-04-15T06:45:53.800Z,73.06
2023-04-15T06:48:20.320Z,72.90
2023-04-15T06:50:46.847Z,73.93
2023-04-15T06:53:14.621Z,73.82
2023-04-15T06:55:43.442Z,74.64
2023-04-15T06:58:09.919Z,73.45
2023-04-15T07:00:38.935Z,72.83
2023-04-15T07:03:05.560Z,72.50
2023-04-15T07:05:32.354Z,70.46
2023-04-15T07:07:58.839Z,69.50
2023-04-15T07:10:25.745Z,70.15
2023-04-15T07:12:52.551Z,70.28
2023-04-15T07:15:19.077Z,70.29
2023-04-15T07:17:45.670Z,70.20
2023-04-15T07:20:13.946Z,70.02
2023-04-15T07:22:40.728Z,70.33
2023-04-15T07:25:07.848Z,68.85
2023-04-15T07:27:37.671Z,69.51
2023-04-15T07:30:04.433Z,69.61
2023-04-15T07:32:31.099Z,69.59
2023-04-15T07:34:57.806Z,68.42
2023-04-15T07:37:24.430Z,67.18
2023-04-15T07:39:50.875Z,64.19
2023-04-15T07:42:17.394Z,62.56
2023-04-15T07:44:43.924Z,59.36
2023-04-15T07:47:36.853Z,57.33
2023-04-15T07:50:06.873Z,53.80
2023-04-15T07:52:40.966Z,53.68
2023-04-15T07:55:14.892Z,52.01
2023-04-15T07:57:49.747Z,51.53
2023-04-15T08:00:16.713Z,51.21
2023-04-15T08:02:43.626Z,51.00
2023-04-15T08:05:10.888Z,51.10
2023-04-15T08:07:38.392Z,50.03
2023-04-15T08:10:05.644Z,50.63
2023-04-15T08:12:32.202Z,50.43
2023-04-15T08:14:58.838Z,48.63
2023-04-15T08:17:27.436Z,49.81
2023-04-15T08:19:58.679Z,49.38
2023-04-15T08:22:25.397Z,46.82
2023-04-15T08:24:52.999Z,47.20
2023-04-15T08:27:19.876Z,47.91
2023-04-15T08:29:50.713Z,47.86
2023-04-15T08:32:17.197Z,46.56
2023-04-15T08:34:43.654Z,47.23
2023-04-15T08:37:11.459Z,45.89
2023-04-15T08:39:40.593Z,45.19
2023-04-15T08:42:16.388Z,45.86
2023-04-15T08:44:44.655Z,44.99
2023-04-15T08:47:14.652Z,46.02
2023-04-15T08:49:43.130Z,47.28
2023-04-15T08:52:10.196Z,47.15
2023-04-15T08:54:37.453Z,46.91
2023-04-15T08:57:04.228Z,47.36
2023-04-15T08:59:30.930Z,47.06
2023-04-15T09:02:01.134Z,47.90
2023-04-15T09:04:28.222Z,47.22
2023-04-15T09:06:54.742Z,47.05
2023-04-15T09:09:21.778Z,47.22
2023-04-15T09:11:49.916Z,47.09
2023-04-15T09:14:18.291Z,46.15
2023-04-15T09:17:01.884Z,47.71
2023-04-15T09:19:29.130Z,46.66
2023-04-15T09:21:58.872Z,44.99
2023-04-15T09:24:33.609Z,44.60
2023-04-15T09:27:00.540Z,44.80
2023-04-15T09:29:27.047Z,45.47
2023-04-15T09:31:53.707Z,44.60
2023-04-15T09:34:20.455Z,45.98
2023-04-15T09:36:56.892Z,45.43
2023-04-15T09:39:23.484Z,44.80
2023-04-15T09:42:10.247Z,45.29
2023-04-15T09:44:37.582Z,46.61
2023-04-15T09:47:04.166Z,47.35
2023-04-15T09:49:30.648Z,46.46
2023-04-15T09:52:06.023Z,46.57
2023-04-15T09:54:35.047Z,46.62
2023-04-15T09:57:08.890Z,45.79
2023-04-15T09:59:35.690Z,44.71
2023-04-15T10:02:05.492Z,44.54
2023-04-15T10:04:35.093Z,43.65
2023-04-15T10:07:05.030Z,44.21
2023-04-15T10:09:33.580Z,44.65
2023-04-15T10:12:01.179Z,44.29
2023-04-15T10:14:34.196Z,46.39
2023-04-15T10:17:02.535Z,45.54
2023-04-15T10:19:41.768Z,43.79
2023-04-15T10:22:08.512Z,43.61
2023-04-15T10:24:35.441Z,43.83
2023-04-15T10:27:13.975Z,44.10
2023-04-15T10:29:51.077Z,43.90
2023-04-15T10:32:22.233Z,43.79
2023-04-15T10:35:25.910Z,44.39
2023-04-15T10:37:45.166Z,44.74
2023-04-15T10:40:38.895Z,42.77
2023-04-15T10:43:05.722Z,43.28
2023-04-15T10:46:03.742Z,43.56
2023-04-15T10:48:38.886Z,44.43
2023-04-15T10:51:05.632Z,44.04
2023-04-15T10:53:34.637Z,44.25
2023-04-15T10:56:01.261Z,44.49
2023-04-15T10:59:05.325Z,42.50
2023-04-15T11:02:00.333Z,43.32
2023-04-15T11:04:57.686Z,43.77
2023-04-15T11:07:49.835Z,44.78
2023-04-15T11:10:37.333Z,42.73
2023-04-15T11:13:54.750Z,42.94
2023-04-15T11:16:43.018Z,42.15
2023-04-15T11:19:09.692Z,42.69
2023-04-15T11:21:39.221Z,43.45
2023-04-15T11:24:14.626Z,41.78
2023-04-15T11:26:45.991Z,41.37
2023-04-15T11:29:18.571Z,42.61
2023-04-15T11:31:49.578Z,41.11
2023-04-15T11:37:16.315Z,42.25
2023-04-15T11:39:46.698Z,43.79
2023-04-15T11:42:18.486Z,42.66
2023-04-15T11:44:45.305Z,42.36
2023-04-15T11:47:24.676Z,43.24
2023-04-15T11:49:51.610Z,42.21
2023-04-15T11:52:19.078Z,42.75
2023-04-15T11:58:10.920Z,44.09
2023-04-15T12:03:29.082Z,45.33
2023-04-15T12:06:21.607Z,45.45
2023-04-15T12:09:07.899Z,45.69
2023-04-15T12:11:36.170Z,45.07
2023-04-15T12:14:06.792Z,45.48
2023-04-15T12:17:04.910Z,46.68
2023-04-15T12:19:36.965Z,46.49
2023-04-15T12:22:10.054Z,48.20
2023-04-15T12:24:37.762Z,46.70
2023-04-15T12:27:09.946Z,46.35
2023-04-15T12:29:39.475Z,46.90
2023-04-15T12:32:13.701Z,47.27
2023-04-15T12:34:50.411Z,47.95
2023-04-15T12:37:17.733Z,47.43
2023-04-15T12:39:46.237Z,49.08
2023-04-15T12:42:12.955Z,48.38
2023-04-15T12:44:40.243Z,49.63
2023-04-15T12:47:50.549Z,49.38
2023-04-15T12:50:18.675Z,48.10
2023-04-15T12:56:07.682Z,49.64
2023-04-15T12:58:40.253Z,50.68
2023-04-15T13:01:06.831Z,48.36
2023-04-15T13:03:33.639Z,50.36
2023-04-15T13:06:02.198Z,49.44
2023-04-15T13:08:28.848Z,49.69
2023-04-15T13:10:55.507Z,49.96
2023-04-15T13:13:22.228Z,51.01
2023-04-15T13:15:49.998Z,50.91
2023-04-15T13:18:16.765Z,52.56
2023-04-15T13:20:43.721Z,52.75
2023-04-15T13:23:10.719Z,53.56
2023-04-15T13:25:37.189Z,54.44
2023-04-15T13:28:03.824Z,54.85
2023-04-15T13:30:31.238Z,53.87
2023-04-15T13:32:57.985Z,54.67
2023-04-15T13:35:34.080Z,54.92
2023-04-15T13:38:00.742Z,54.47
2023-04-15T13:40:35.562Z,55.62
2023-04-15T13:43:05.492Z,55.10
2023-04-15T13:45:32.021Z,55.64
2023-04-15T13:48:05.917Z,56.22
2023-04-15T13:50:32.639Z,56.25
2023-04-15T13:52:59.267Z,55.84
2023-04-15T13:55:28.693Z,55.93
2023-04-15T13:57:56.917Z,56.66
2023-04-15T14:00:23.483Z,56.50
2023-04-15T14:02:51.880Z,56.51
2023-04-15T14:05:18.463Z,55.78
2023-04-15T14:07:45.359Z,56.34
2023-04-15T14:10:14.547Z,55.08
2023-04-15T14:12:50.147Z,54.85
2023-04-15T14:15:18.765Z,56.06
2023-04-15T14:17:45.541Z,56.71
2023-04-15T14:20:17.192Z,56.97
2023-04-15T14:22:44.032Z,57.70
2023-04-15T14:25:30.533Z,58.58
2023-04-15T14:28:00.949Z,59.62
2023-04-15T14:33:37.947Z,60.08
2023-04-15T14:36:13.833Z,60.19
2023-04-15T14:38:41.063Z,61.38
2023-04-15T14:41:08.560Z,61.30
2023-04-15T14:43:58.546Z,61.20
2023-04-15T14:46:29.102Z,60.47
2023-04-15T14:49:21.798Z,59.63
2023-04-15T14:52:37.351Z,59.88
2023-04-15T14:55:10.536Z,58.91
2023-04-15T14:58:15.430Z,59.83
2023-04-15T15:01:40.436Z,59.77
2023-04-15T15:04:42.775Z,60.38
2023-04-15T15:07:47.484Z,60.53
2023-04-15T15:10:14.257Z,60.60
2023-04-15T15:12:40.686Z,60.16
2023-04-15T15:15:19.461Z,59.97
2023-04-15T15:17:54.505Z,60.48
2023-04-15T15:20:21.534Z,60.49
2023-04-15T15:22:48.043Z,61.40
2023-04-15T15:25:14.565Z,61.32
2023-04-15T15:27:41.243Z,62.15
2023-04-15T15:30:08.297Z,62.32
2023-04-15T15:32:35.038Z,62.51
2023-04-15T15:35:01.695Z,62.83
2023-04-15T15:37:30.368Z,63.02
2023-04-15T15:39:57.004Z,63.32
2023-04-15T15:42:23.557Z,64.41
2023-04-15T15:44:53.156Z,64.79
2023-04-15T15:47:21.067Z,64.43
2023-04-15T15:49:47.788Z,64.16
2023-04-15T15:52:14.336Z,64.49
2023-04-15T15:54:41.229Z,64.29
2023-04-15T15:57:07.989Z,64.46
2023-04-15T15:59:34.493Z,64.15
2023-04-15T16:02:02.645Z,64.32
2023-04-15T16:04:29.548Z,65.47
2023-04-15T16:06:56.212Z,65.43
2023-04-15T16:09:22.639Z,65.22
2023-04-15T16:11:51.243Z,65.46
2023-04-15T16:14:21.226Z,65.89
2023-04-15T16:16:47.883Z,66.54
2023-04-15T16:19:14.390Z,66.23
2023-04-15T16:21:40.866Z,66.80
2023-04-15T16:24:07.362Z,67.19
2023-04-15T16:26:33.844Z,67.02
2023-04-15T16:29:01.856Z,67.15
2023-04-15T16:31:31.414Z,67.43
2023-04-15T16:33:58.275Z,67.49
2023-04-15T16:36:25.945Z,67.43
2023-04-15T16:38:53.273Z,67.81
2023-04-15T16:41:21.455Z,68.02
2023-04-15T16:43:47.942Z,67.76
2023-04-15T16:46:29.861Z,67.65
2023-04-15T16:48:56.966Z,67.93
2023-04-15T16:51:24.070Z,67.92
2023-04-15T16:53:53.646Z,68.28
2023-04-15T16:56:21.513Z,68.14
2023-04-15T16:59:13.822Z,68.63
2023-04-15T17:01:42.637Z,69.00
2023-04-15T17:04:09.302Z,68.78
2023-04-15T17:06:36.200Z,68.64
2023-04-15T17:09:02.757Z,68.78
2023-04-15T17:11:29.419Z,68.76
2023-04-15T17:13:55.890Z,68.66
2023-04-15T17:16:25.468Z,68.79
2023-04-15T17:18:52.029Z,69.01
2023-04-15T17:21:19.254Z,69.07
2023-04-15T17:23:48.182Z,68.56
2023-04-15T17:26:14.848Z,68.84
2023-04-15T17:28:56.589Z,69.06
2023-04-15T17:31:24.844Z,68.95
2023-04-15T17:34:07.804Z,69.20
2023-04-15T17:36:37.296Z,69.91
2023-04-15T17:39:04.569Z,69.81
2023-04-15T17:41:31.267Z,70.70
2023-04-15T17:43:57.839Z,70.87
2023-04-15T17:46:24.329Z,70.53
2023-04-15T17:48:51.996Z,69.99
2023-04-15T17:51:18.707Z,70.15
2023-04-15T17:53:45.276Z,70.84
2023-04-15T17:56:14.099Z,70.83
2023-04-15T17:58:40.588Z,71.45
2023-04-15T18:01:07.263Z,71.16
2023-04-15T18:03:33.994Z,71.69
2023-04-15T18:06:01.306Z,71.77
2023-04-15T18:08:28.977Z,71.57
2023-04-15T18:10:55.483Z,72.06
2023-04-15T18:13:24.371Z,71.66
2023-04-15T18:15:51.350Z,71.81
2023-04-15T18:18:18.001Z,71.89
2023-04-15T18:20:44.561Z,71.62
2023-04-15T18:23:11.708Z,71.41
2023-04-15T18:25:38.332Z,71.57
2023-04-15T18:28:08.520Z,71.55
2023-04-15T18:30:35.030Z,71.45
2023-04-15T18:33:02.797Z,71.65
2023-04-15T18:35:34.868Z,72.17
2023-04-15T18:38:21.725Z,71.84
2023-04-15T18:42:18.821Z,72.37
2023-04-15T18:44:59.007Z,72.70
2023-04-15T18:52:35.869Z,73.45
2023-04-15T18:55:03.434Z,73.57
2023-04-15T18:57:35.736Z,74.54
2023-04-15T19:00:03.553Z,74.35
2023-04-15T19:02:30.104Z,75.70
2023-04-15T19:04:56.695Z,75.68
2023-04-15T19:07:23.280Z,76.23
2023-04-15T19:09:49.881Z,76.21
2023-04-15T19:12:16.468Z,76.16
2023-04-15T19:14:43.013Z,76.58
2023-04-15T19:17:09.493Z,77.15
2023-04-15T19:19:35.962Z,76.30
2023-04-15T19:22:03.500Z,77.46
2023-04-15T19:24:33.411Z,77.72
2023-04-15T19:27:00.188Z,77.01
2023-04-15T19:29:28.531Z,77.92
2023-04-15T19:31:55.221Z,78.17
2023-04-15T19:34:21.839Z,77.96
2023-04-15T19:36:48.511Z,78.51
2023-04-15T19:39:14.977Z,78.28
2023-04-15T19:41:41.499Z,78.68
2023-04-15T19:44:08.051Z,78.47
2023-04-15T19:46:34.735Z,79.07
2023-04-15T19:49:01.333Z,79.42
2023-04-15T19:51:28.485Z,78.54
2023-04-15T19:53:56.692Z,79.80
2023-04-15T19:56:26.320Z,79.33
2023-04-15T19:58:54.728Z,79.02
2023-04-15T20:01:22.351Z,80.32
2023-04-15T20:03:49.343Z,79.38
2023-04-15T20:06:15.907Z,80.63
2023-04-15T20:08:42.437Z,80.86
2023-04-15T20:11:09.567Z,79.69
2023-04-15T20:13:37.148Z,80.10
2023-04-15T20:16:05.905Z,79.76
2023-04-15T20:18:32.409Z,80.03
2023-04-15T20:20:59.164Z,80.00
2023-04-15T20:23:26.360Z,79.50
2023-04-15T20:25:52.940Z,79.91
2023-04-15T20:28:19.508Z,79.95
2023-04-15T20:30:47.076Z,80.42
2023-04-15T20:33:14.191Z,80.42
2023-04-15T20:35:41.007Z,80.19
2023-04-15T20:38:07.505Z,79.84
2023-04-15T20:40:33.978Z,80.34
2023-04-15T20:43:00.607Z,80.13
2023-04-15T20:45:27.099Z,80.36
2023-04-15T20:47:55.171Z,80.65
2023-04-15T20:50:21.933Z,80.86
2023-04-15T20:52:52.737Z,81.00
2023-04-15T20:55:20.962Z,81.61
2023-04-15T20:57:48.973Z,80.85
2023-04-15T21:00:17.044Z,81.25
2023-04-15T21:02:44.695Z,81.62
2023-04-15T21:05:11.532Z,81.40
2023-04-15T21:07:37.952Z,81.59
2023-04-15T21:10:04.759Z,81.63
2023-04-15T21:12:31.277Z,81.95
2023-04-15T21:14:57.830Z,82.13
2023-04-15T21:17:25.089Z,82.31
2023-04-15T21:19:51.608Z,82.57
2023-04-15T21:22:18.088Z,82.77
2023-04-15T21:24:44.557Z,82.34
2023-04-15T21:27:11.048Z,82.56
2023-04-15T21:29:40.224Z,83.33
2023-04-15T21:32:06.800Z,83.23
2023-04-15T21:34:33.268Z,83.88
2023-04-15T21:36:59.857Z,83.99
2023-04-15T21:39:26.426Z,84.55
2023-04-15T21:41:53.057Z,84.12
2023-04-15T21:44:19.570Z,84.19
2023-04-15T21:46:46.429Z,84.76
2023-04-15T21:49:13.976Z,84.45
2023-04-15T21:51:40.632Z,84.32
2023-04-15T21:54:07.167Z,84.74
2023-04-15T21:56:33.699Z,84.59
2023-04-15T21:59:00.113Z,84.95
2023-04-15T22:01:28.177Z,85.08
2023-04-15T22:03:55.061Z,85.19
2023-04-15T22:06:21.954Z,85.50
2023-04-15T22:08:56.845Z,85.72
2023-04-15T22:11:36.494Z,84.74
2023-04-15T22:14:03.243Z,84.87
2023-04-15T22:16:29.761Z,85.58
2023-04-15T22:19:02.202Z,85.67
2023-04-15T22:21:28.796Z,86.18
2023-04-15T22:24:38.114Z,85.53
2023-04-15T22:26:41.859Z,85.73
2023-04-15T22:29:08.375Z,85.84
2023-04-15T22:31:34.893Z,85.64
2023-04-15T22:34:01.512Z,86.70
2023-04-15T22:36:28.574Z,86.93
2023-04-15T22:38:55.095Z,86.94
2023-04-15T22:41:21.508Z,87.17
2023-04-15T22:43:47.993Z,87.43
2023-04-15T22:46:14.638Z,87.16
2023-04-15T22:48:42.515Z,87.23
2023-04-15T22:51:08.984Z,88.18
2023-04-15T22:53:35.543Z,87.35
2023-04-15T22:56:02.247Z,88.19
2023-04-15T22:58:32.077Z,87.53
2023-04-15T23:01:01.285Z,87.85
2023-04-15T23:03:29.280Z,87.97
2023-04-15T23:05:55.989Z,87.95
2023-04-15T23:08:23.860Z,88.66
2023-04-15T23:10:50.904Z,87.67
2023-04-15T23:13:17.318Z,87.62
2023-04-15T23:15:43.964Z,88.31
2023-04-15T23:18:10.710Z,88.86
2023-04-15T23:20:37.315Z,89.35
2023-04-15T23:23:03.995Z,89.28
2023-04-15T23:25:30.517Z,89.36
2023-04-15T23:27:56.920Z,89.06
2023-04-15T23:30:23.412Z,90.33
2023-04-15T23:32:49.880Z,90.10
2023-04-15T23:35:16.670Z,89.17
2023-04-15T23:37:43.151Z,90.19
2023-04-15T23:40:10.308Z,90.24
2023-04-15T23:42:36.757Z,90.52
2023-04-15T23:45:03.461Z,90.56
2023-04-15T23:47:33.872Z,90.28
2023-04-15T23:50:01.463Z,89.86
2023-04-15T23:52:27.930Z,91.28
2023-04-15T23:54:54.459Z,90.99
2023-04-15T23:57:20.975Z,90.57
2023-04-15T23:59:47.430Z,91.24
